createdAt,value
2023-01-05T00:00:09.887Z,13.20
2023-01-05T00:02:39.528Z,13.70
2023-01-05T00:07:33.034Z,9.40
2023-01-05T00:09:59.728Z,11.50
2023-01-05T00:12:45.040Z,10.50
2023-01-05T00:15:30.286Z,11.30
2023-01-05T00:18:15.662Z,14.20
2023-01-05T00:21:01.100Z,10.00
2023-01-05T00:23:27.873Z,10.50
2023-01-05T00:25:54.616Z,16.50
2023-01-05T00:28:21.294Z,12.00
2023-01-05T00:30:48.071Z,13.00
2023-01-05T00:33:15.847Z,15.40
2023-01-05T00:35:42.720Z,15.70
2023-01-05T00:40:38.500Z,11.40
2023-01-05T00:45:32.229Z,10.70
2023-01-05T00:47:58.988Z,10.30
2023-01-05T00:50:25.686Z,9.60
2023-01-05T00:52:52.501Z,11.50
2023-01-05T00:57:46.440Z,11.60
2023-01-05T01:00:18.439Z,16.10
2023-01-05T01:02:45.438Z,12.20
2023-01-05T01:05:12.261Z,10.70
2023-01-05T01:07:39.025Z,10.70
2023-01-05T01:10:06.581Z,10.10
2023-01-05T01:12:33.324Z,10.90
2023-01-05T01:15:00.142Z,10.20
2023-01-05T01:19:53.504Z,11.80
2023-01-05T01:22:20.222Z,12.00
2023-01-05T01:24:47.004Z,10.00
2023-01-05T01:27:13.820Z,12.80
2023-01-05T01:32:07.429Z,17.70
2023-01-05T01:34:34.272Z,14.00
2023-01-05T01:39:35.274Z,14.10
2023-01-05T01:42:06.484Z,12.50
2023-01-05T01:44:59.076Z,12.00
2023-01-05T01:47:44.335Z,15.10
2023-01-05T01:50:25.141Z,11.20
2023-01-05T01:52:52.960Z,12.30
2023-01-05T01:55:19.764Z,20.50
2023-01-05T02:00:14.924Z,9.30
2023-01-05T02:02:46.602Z,13.80
2023-01-05T02:05:14.376Z,11.80
2023-01-05T02:07:44.744Z,18.10
2023-01-05T02:10:12.283Z,14.50
2023-01-05T02:15:30.971Z,10.40
2023-01-05T02:18:29.325Z,14.90
2023-01-05T02:21:17.119Z,12.20
2023-01-05T02:24:06.592Z,10.50
2023-01-05T02:26:52.543Z,9.60
2023-01-05T02:29:38.376Z,13.50
2023-01-05T02:32:05.107Z,10.80
2023-01-05T02:34:47.000Z,8.90
2023-01-05T02:37:18.085Z,9.30
2023-01-05T02:39:58.127Z,10.40
2023-01-05T02:42:26.127Z,13.30
2023-01-05T02:44:53.179Z,10.60
2023-01-05T02:47:27.590Z,10.40
2023-01-05T02:50:19.847Z,14.50
2023-01-05T02:53:08.940Z,13.20
2023-01-05T02:55:39.057Z,16.50
2023-01-05T02:58:09.607Z,12.70
2023-01-05T03:00:43.175Z,11.70
2023-01-05T03:03:25.650Z,11.60
2023-01-05T03:05:55.709Z,13.10
2023-01-05T03:08:30.619Z,12.10
2023-01-05T03:11:20.312Z,13.10
2023-01-05T03:13:59.408Z,11.70
2023-01-05T03:16:29.342Z,11.50
2023-01-05T03:19:15.634Z,16.00
2023-01-05T03:22:01.624Z,10.30
2023-01-05T03:24:48.546Z,13.80
2023-01-05T03:27:34.016Z,11.80
2023-01-05T03:30:19.709Z,11.60
2023-01-05T03:33:08.588Z,12.70
2023-01-05T03:35:38.514Z,14.70
2023-01-05T03:38:18.098Z,12.00
2023-01-05T03:40:45.871Z,13.60
2023-01-05T03:43:12.858Z,12.40
2023-01-05T03:45:50.817Z,12.70
2023-01-05T03:48:21.106Z,13.20
2023-01-05T03:50:48.025Z,14.80
2023-01-05T03:53:15.176Z,14.90
2023-01-05T03:55:43.310Z,14.00
2023-01-05T04:00:40.394Z,15.30
2023-01-05T04:03:09.207Z,15.20
2023-01-05T04:05:36.736Z,14.60
2023-01-05T04:08:03.841Z,14.50
2023-01-05T04:10:32.539Z,13.20
2023-01-05T04:12:59.577Z,13.20
2023-01-05T04:15:26.439Z,12.80
2023-01-05T04:17:53.690Z,13.00
2023-01-05T04:20:20.904Z,10.40
2023-01-05T04:22:47.881Z,13.70
2023-01-05T04:25:17.397Z,13.60
2023-01-05T04:27:44.147Z,13.80
2023-01-05T04:30:11.439Z,14.50
2023-01-05T04:32:38.331Z,12.50
2023-01-05T04:35:10.952Z,15.20
2023-01-05T04:37:39.730Z,15.30
2023-01-05T04:40:08.015Z,14.20
2023-01-05T04:42:41.325Z,14.20
2023-01-05T04:45:08.884Z,14.30
2023-01-05T04:47:36.183Z,15.70
2023-01-05T04:50:04.776Z,15.60
2023-01-05T04:52:31.851Z,18.30
2023-01-05T04:54:58.952Z,21.00
2023-01-05T04:57:26.618Z,13.40
2023-01-05T04:59:53.329Z,12.90
2023-01-05T05:02:20.179Z,18.70
2023-01-05T05:04:48.808Z,15.30
2023-01-05T05:07:16.536Z,12.20
2023-01-05T05:12:10.663Z,11.90
2023-01-05T05:14:38.166Z,17.70
2023-01-05T05:17:05.386Z,12.20
2023-01-05T05:19:32.354Z,18.40
2023-01-05T05:21:59.323Z,15.10
2023-01-05T05:24:26.384Z,13.60
2023-01-05T05:26:53.192Z,15.40
2023-01-05T05:29:19.890Z,11.20
2023-01-05T05:31:46.652Z,14.00
2023-01-05T05:36:40.110Z,14.30
2023-01-05T05:39:08.810Z,13.90
2023-01-05T05:41:35.704Z,13.30
2023-01-05T05:44:02.733Z,14.20
2023-01-05T05:46:29.889Z,12.00
2023-01-05T05:48:57.103Z,12.10
2023-01-05T05:51:24.107Z,14.00
2023-01-05T05:53:51.231Z,16.10
2023-01-05T05:57:43.886Z,12.20
2023-01-05T06:00:11.381Z,13.10
2023-01-05T06:02:41.094Z,14.30
2023-01-05T06:05:08.616Z,14.80
2023-01-05T06:07:35.335Z,14.50
2023-01-05T06:10:02.298Z,15.00
2023-01-05T06:12:29.231Z,14.70
2023-01-05T06:14:56.076Z,15.40
2023-01-05T06:17:22.782Z,14.90
2023-01-05T06:19:49.499Z,12.10
2023-01-05T06:22:16.232Z,13.10
2023-01-05T06:24:42.951Z,14.20
2023-01-05T06:27:11.002Z,14.40
2023-01-05T06:29:37.772Z,18.30
2023-01-05T06:34:31.246Z,17.30
2023-01-05T06:37:02.062Z,14.40
2023-01-05T06:39:29.244Z,13.40
2023-01-05T06:41:56.027Z,15.40
2023-01-05T06:44:22.730Z,15.90
2023-01-05T06:46:49.425Z,13.90
2023-01-05T06:49:16.195Z,15.90
2023-01-05T06:54:09.653Z,11.20
2023-01-05T06:56:36.392Z,14.00
2023-01-05T06:59:03.107Z,12.00
2023-01-05T07:01:29.932Z,12.60
2023-01-05T07:03:56.871Z,16.60
2023-01-05T07:08:50.240Z,14.90
2023-01-05T07:11:16.929Z,14.60
2023-01-05T07:13:47.702Z,15.20
2023-01-05T07:16:14.500Z,15.40
2023-01-05T07:18:41.264Z,15.20
2023-01-05T07:21:07.942Z,15.60
2023-01-05T07:23:37.856Z,14.20
2023-01-05T07:26:08.395Z,16.20
2023-01-05T07:28:35.745Z,14.50
2023-01-05T07:31:02.520Z,17.50
2023-01-05T07:35:55.894Z,22.60
2023-01-05T07:38:22.617Z,23.90
2023-01-05T07:40:49.333Z,18.20
2023-01-05T07:43:16.494Z,15.50
2023-01-05T07:45:43.826Z,14.90
2023-01-05T07:48:10.570Z,19.20
2023-01-05T07:50:37.291Z,17.10
2023-01-05T07:53:03.959Z,18.80
2023-01-05T07:55:30.673Z,17.10
2023-01-05T07:57:57.367Z,18.80
2023-01-05T08:00:24.106Z,15.30
2023-01-05T08:02:50.876Z,13.90
2023-01-05T08:05:17.692Z,17.90
2023-01-05T08:10:29.367Z,16.60
2023-01-05T08:13:19.798Z,16.20
2023-01-05T08:15:51.034Z,15.90
2023-01-05T08:18:18.569Z,12.10
2023-01-05T08:20:58.603Z,17.40
2023-01-05T08:23:27.375Z,13.20
2023-01-05T08:25:54.689Z,14.10
2023-01-05T08:28:21.416Z,18.10
2023-01-05T08:30:48.173Z,17.50
2023-01-05T08:33:14.877Z,14.00
2023-01-05T08:35:42.353Z,14.40
2023-01-05T08:38:09.117Z,13.20
2023-01-05T08:40:38.918Z,13.50
2023-01-05T08:43:06.154Z,15.50
2023-01-05T08:45:33.271Z,19.70
2023-01-05T08:48:01.589Z,17.20
2023-01-05T08:50:28.377Z,12.40
2023-01-05T08:52:55.100Z,13.50
2023-01-05T08:55:21.871Z,14.30
2023-01-05T08:57:48.572Z,14.30
2023-01-05T09:00:17.366Z,11.20
2023-01-05T09:02:44.632Z,11.50
2023-01-05T09:05:11.535Z,11.60
2023-01-05T09:07:38.299Z,12.70
2023-01-05T09:10:06.342Z,10.70
2023-01-05T09:12:35.613Z,14.00
2023-01-05T09:15:02.565Z,13.60
2023-01-05T09:17:29.344Z,11.40
2023-01-05T09:22:22.869Z,12.50
2023-01-05T09:24:49.565Z,12.30
2023-01-05T09:27:16.361Z,12.10
2023-01-05T09:32:11.524Z,13.90
2023-01-05T09:34:38.348Z,17.70
2023-01-05T09:39:31.719Z,20.60
2023-01-05T09:42:00.399Z,23.40
2023-01-05T09:44:41.568Z,22.70
2023-01-05T09:47:18.703Z,15.70
2023-01-05T09:49:46.935Z,11.30
2023-01-05T09:52:13.677Z,10.30
2023-01-05T09:54:40.683Z,16.30
2023-01-05T09:57:13.671Z,9.30
2023-01-05T09:59:45.454Z,8.50
2023-01-05T10:02:25.239Z,8.50
2023-01-05T10:04:52.060Z,10.00
2023-01-05T10:09:48.534Z,15.40
2023-01-05T10:12:38.614Z,14.60
2023-01-05T10:15:14.086Z,12.10
2023-01-05T10:17:43.513Z,10.70
2023-01-05T10:20:23.551Z,9.10
2023-01-05T10:23:30.689Z,11.10
2023-01-05T10:26:51.090Z,10.20
2023-01-05T10:29:22.482Z,7.80
2023-01-05T10:31:56.281Z,9.40
2023-01-05T10:34:28.992Z,7.90
2023-01-05T10:37:34.382Z,9.00
2023-01-05T10:40:03.679Z,11.10
2023-01-05T10:42:52.840Z,7.30
2023-01-05T10:45:19.660Z,7.80
2023-01-05T10:50:40.021Z,9.10
2023-01-05T10:53:12.053Z,6.20
2023-01-05T10:55:45.081Z,6.90
2023-01-05T10:58:42.106Z,7.20
2023-01-05T11:01:25.326Z,10.70
2023-01-05T11:04:25.641Z,6.90
2023-01-05T11:06:43.163Z,7.00
2023-01-05T11:09:20.310Z,7.10
2023-01-05T11:11:58.017Z,6.10
2023-01-05T11:14:24.742Z,6.30
2023-01-05T11:16:53.510Z,10.00
2023-01-05T11:19:28.224Z,6.70
2023-01-05T11:22:01.401Z,6.50
2023-01-05T11:24:34.612Z,6.40
2023-01-05T11:27:26.641Z,6.10
2023-01-05T11:30:24.710Z,7.80
2023-01-05T11:32:51.455Z,6.30
2023-01-05T11:35:37.459Z,6.50
2023-01-05T11:38:04.428Z,5.50
2023-01-05T11:40:32.463Z,8.20
2023-01-05T11:42:59.417Z,6.00
2023-01-05T11:45:28.713Z,7.20
2023-01-05T11:47:57.151Z,6.20
2023-01-05T11:50:27.804Z,4.80
2023-01-05T11:52:56.025Z,6.30
2023-01-05T11:55:35.521Z,7.10
2023-01-05T11:58:17.861Z,5.60
2023-01-05T12:00:50.980Z,5.20
2023-01-05T12:03:30.730Z,5.90
2023-01-05T12:05:58.439Z,5.50
2023-01-05T12:08:31.166Z,6.50
2023-01-05T12:11:15.556Z,4.40
2023-01-05T12:14:08.849Z,5.60
2023-01-05T12:16:45.814Z,4.60
2023-01-05T12:19:44.805Z,5.30
2023-01-05T12:22:39.088Z,7.90
2023-01-05T12:25:11.565Z,5.80
2023-01-05T12:29:49.844Z,5.00
2023-01-05T12:33:44.336Z,5.50
2023-01-05T12:35:48.313Z,6.00
2023-01-05T12:38:23.655Z,7.00
2023-01-05T12:41:04.003Z,6.70
2023-01-05T12:43:45.851Z,7.90
2023-01-05T12:46:40.459Z,5.60
2023-01-05T12:49:13.049Z,9.80
2023-01-05T12:51:46.597Z,7.70
2023-01-05T12:54:30.768Z,6.50
2023-01-05T12:57:04.007Z,7.10
2023-01-05T12:59:49.903Z,9.10
2023-01-05T13:02:31.602Z,5.30
2023-01-05T13:05:41.693Z,5.40
2023-01-05T13:08:37.262Z,5.90
2023-01-05T13:11:12.513Z,6.10
2023-01-05T13:13:48.523Z,4.40
2023-01-05T13:16:29.442Z,4.70
2023-01-05T13:19:14.416Z,4.30
2023-01-05T13:21:42.969Z,4.20
2023-01-05T13:24:18.020Z,4.70
2023-01-05T13:26:44.774Z,10.50
2023-01-05T13:29:23.649Z,3.90
2023-01-05T13:31:58.297Z,5.50
2023-01-05T13:34:28.356Z,4.90
2023-01-05T13:37:13.736Z,4.90
2023-01-05T13:40:08.592Z,7.60
2023-01-05T13:42:38.256Z,5.40
2023-01-05T13:45:11.166Z,5.60
2023-01-05T13:48:07.416Z,4.60
2023-01-05T13:50:48.507Z,3.60
2023-01-05T13:53:20.075Z,5.00
2023-01-05T13:56:00.263Z,4.30
2023-01-05T13:59:12.138Z,4.20
2023-01-05T14:01:46.273Z,5.90
2023-01-05T14:04:20.243Z,4.70
2023-01-05T14:06:48.531Z,5.20
2023-01-05T14:28:34.036Z,13.50
2023-01-05T14:33:53.189Z,10.10
2023-01-05T14:36:35.233Z,10.60
2023-01-05T14:39:04.079Z,9.80
2023-01-05T14:41:31.000Z,11.50
2023-01-05T14:44:02.860Z,12.80
2023-01-05T14:47:02.887Z,11.50
2023-01-05T14:49:53.507Z,11.90
2023-01-05T14:52:52.243Z,10.10
2023-01-05T14:55:38.706Z,11.40
2023-01-05T14:58:13.163Z,13.20
2023-01-05T15:00:45.828Z,8.70
2023-01-05T15:03:12.687Z,8.80
2023-01-05T15:08:34.932Z,10.40
2023-01-05T15:11:22.857Z,9.40
2023-01-05T15:17:00.506Z,9.30
2023-01-05T15:19:39.089Z,8.60
2023-01-05T15:22:40.477Z,7.50
2023-01-05T15:25:10.161Z,9.90
2023-01-05T15:27:45.897Z,9.50
2023-01-05T15:31:09.913Z,5.80
2023-01-05T15:33:44.466Z,4.60
2023-01-05T15:36:38.756Z,6.70
2023-01-05T15:39:25.616Z,8.10
2023-01-05T15:41:53.439Z,11.20
2023-01-05T15:44:20.123Z,8.50
2023-01-05T15:46:46.878Z,8.80
2023-01-05T15:51:54.633Z,9.20
2023-01-05T15:54:29.529Z,7.30
2023-01-05T15:56:56.871Z,7.80
2023-01-05T15:59:35.902Z,8.90
2023-01-05T16:02:02.708Z,7.50
2023-01-05T16:07:00.987Z,9.10
2023-01-05T16:09:38.438Z,12.30
2023-01-05T16:14:43.791Z,8.50
2023-01-05T16:17:15.177Z,8.70
2023-01-05T16:19:45.015Z,6.40
2023-01-05T16:22:30.535Z,6.60
2023-01-05T16:25:03.211Z,7.30
2023-01-05T16:27:29.991Z,6.20
2023-01-05T16:29:56.814Z,6.20
2023-01-05T16:35:35.899Z,11.60
2023-01-05T16:38:09.702Z,28.40
2023-01-05T16:40:57.545Z,12.10
2023-01-05T16:43:39.723Z,7.60
2023-01-05T16:46:29.098Z,7.00
2023-01-05T16:49:46.363Z,7.40
2023-01-05T16:52:23.858Z,5.20
2023-01-05T16:55:27.703Z,4.60
2023-01-05T16:57:55.013Z,6.40
2023-01-05T17:00:31.533Z,4.70
2023-01-05T17:02:59.149Z,4.80
2023-01-05T17:05:33.689Z,6.60
2023-01-05T17:08:06.334Z,7.60
2023-01-05T17:10:33.092Z,8.30
2023-01-05T17:13:10.681Z,6.20
2023-01-05T17:15:37.461Z,5.10
2023-01-05T17:18:14.484Z,3.30
2023-01-05T17:20:41.690Z,4.40
2023-01-05T17:23:34.487Z,4.50
2023-01-05T17:26:07.503Z,4.20
2023-01-05T17:28:34.320Z,5.50
2023-01-05T17:33:27.692Z,5.40
2023-01-05T17:35:54.423Z,4.40
2023-01-05T17:38:21.159Z,6.20
2023-01-05T17:40:47.968Z,8.20
2023-01-05T17:45:42.851Z,7.70
2023-01-05T17:50:41.711Z,10.50
2023-01-05T17:55:35.498Z,11.20
2023-01-05T17:58:02.310Z,10.40
2023-01-05T18:02:57.003Z,8.10
2023-01-05T18:07:50.442Z,11.60
2023-01-05T18:10:21.694Z,12.90
2023-01-05T18:12:48.587Z,9.20
2023-01-05T18:17:42.635Z,9.80
2023-01-05T18:20:12.705Z,7.90
2023-01-05T18:22:39.572Z,6.70
2023-01-05T18:27:38.091Z,6.20
2023-01-05T18:30:05.600Z,4.80
2023-01-05T18:32:32.402Z,6.50
2023-01-05T18:39:57.802Z,8.60
2023-01-05T18:44:51.444Z,9.80
2023-01-05T18:47:18.566Z,15.60
2023-01-05T18:49:45.316Z,11.50
2023-01-05T18:52:12.157Z,13.00
2023-01-05T18:57:05.553Z,12.20
2023-01-05T19:01:59.455Z,11.60
2023-01-05T19:04:26.370Z,13.00
2023-01-05T19:09:19.784Z,8.90
2023-01-05T19:11:47.165Z,8.70
2023-01-05T19:14:14.425Z,11.80
2023-01-05T19:16:41.401Z,9.80
2023-01-05T19:19:11.507Z,8.50
2023-01-05T19:21:40.054Z,6.60
2023-01-05T19:24:10.029Z,5.70
2023-01-05T19:26:36.801Z,4.00
2023-01-05T19:29:03.765Z,7.70
2023-01-05T19:31:30.579Z,7.00
2023-01-05T19:36:32.250Z,5.00
2023-01-05T19:39:00.746Z,5.70
2023-01-05T19:41:27.567Z,5.30
2023-01-05T19:46:22.314Z,6.80
2023-01-05T19:48:49.207Z,5.60
2023-01-05T19:53:43.740Z,4.40
2023-01-05T19:56:12.884Z,4.80
2023-01-05T19:58:40.078Z,5.40
2023-01-05T20:01:15.062Z,6.00
2023-01-05T20:03:43.698Z,7.80
2023-01-05T20:06:16.569Z,5.10
2023-01-05T20:08:44.524Z,4.20
2023-01-05T20:11:13.027Z,5.50
2023-01-05T20:13:40.293Z,3.30
2023-01-05T20:16:08.732Z,4.30
2023-01-05T20:18:35.824Z,4.30
2023-01-05T20:21:03.482Z,5.70
2023-01-05T20:23:40.208Z,4.70
2023-01-05T20:26:09.434Z,3.70
2023-01-05T20:28:36.202Z,3.70
2023-01-05T20:31:03.712Z,3.40
2023-01-05T20:33:30.765Z,3.80
2023-01-05T20:35:57.663Z,3.80
2023-01-05T20:40:51.163Z,5.10
2023-01-05T20:45:44.712Z,5.20
2023-01-05T20:48:11.438Z,3.20
2023-01-05T20:50:38.276Z,2.70
2023-01-05T20:53:05.115Z,3.90
2023-01-05T20:57:58.382Z,4.90
2023-01-05T21:00:25.911Z,6.10
2023-01-05T21:02:52.734Z,10.10
2023-01-05T21:07:46.751Z,21.80
2023-01-05T21:10:13.692Z,26.20
2023-01-05T21:12:59.049Z,25.70
2023-01-05T21:15:53.318Z,30.60
2023-01-05T21:18:20.198Z,26.60
2023-01-05T21:23:13.866Z,33.90
2023-01-05T21:28:30.758Z,18.70
2023-01-05T21:31:01.839Z,24.70
2023-01-05T21:33:28.632Z,31.60
2023-01-05T21:38:24.525Z,17.00
2023-01-05T21:40:51.409Z,7.20
2023-01-05T21:43:18.070Z,5.30
2023-01-05T21:45:44.778Z,8.50
2023-01-05T21:48:11.488Z,8.60
2023-01-05T21:50:57.781Z,3.30
2023-01-05T21:53:43.102Z,3.80
2023-01-05T21:56:26.283Z,3.30
2023-01-05T21:58:59.570Z,3.40
2023-01-05T22:01:27.812Z,4.40
2023-01-05T22:03:54.723Z,4.70
2023-01-05T22:06:21.518Z,2.60
2023-01-05T22:11:14.789Z,3.60
2023-01-05T22:13:41.694Z,3.40
2023-01-05T22:16:08.711Z,3.90
2023-01-05T22:18:35.645Z,3.60
2023-01-05T22:23:30.830Z,3.20
2023-01-05T22:26:05.985Z,4.70
2023-01-05T22:28:34.199Z,2.60
2023-01-05T22:31:08.753Z,3.30
2023-01-05T22:33:36.696Z,3.60
2023-01-05T22:36:03.907Z,6.60
2023-01-05T22:38:30.620Z,6.20
2023-01-05T22:40:58.464Z,3.80
2023-01-05T22:43:25.258Z,3.60
2023-01-05T22:48:18.885Z,6.70
2023-01-05T22:50:46.221Z,11.30
2023-01-05T22:53:13.560Z,10.10
2023-01-05T22:55:43.899Z,10.40
2023-01-05T22:58:11.175Z,9.60
2023-01-05T23:00:38.078Z,8.60
2023-01-05T23:03:04.947Z,9.00
2023-01-05T23:07:58.452Z,13.60
2023-01-05T23:12:54.510Z,16.40
2023-01-05T23:17:48.025Z,15.40
2023-01-05T23:20:14.848Z,8.60
2023-01-05T23:25:08.576Z,9.40
2023-01-05T23:27:35.296Z,9.30
2023-01-05T23:30:02.116Z,12.60
2023-01-05T23:34:55.607Z,5.80
2023-01-05T23:37:22.301Z,9.30
2023-01-05T23:39:49.029Z,5.90
2023-01-05T23:45:01.242Z,7.90
2023-01-05T23:47:27.949Z,14.50
2023-01-05T23:52:21.287Z,6.50
2023-01-05T23:54:48.041Z,4.50
2023-01-05T23:57:18.566Z,4.90
2023-01-05T23:59:45.475Z,3.70
